Terminal Aerodrome Forecast
Issued by NWS

Home | Current Version | Previous Version | Text Only | Print | Product List | Glossary On
Versions: 1 2 3 4 5 6 7 8 9 10 11 12
000
FTUS44 KSJT 260520
TAFBBD
TAF
KBBD 260520Z 2606/2706 14006KT P6SM SKC
     FM260900 17010KT P6SM SKC
     FM261400 18013KT P6SM BKN012
     FM261700 19012KT P6SM BKN035
     FM262000 20010KT P6SM SCT250
      AMD NOT SKED=

USA.gov is the U.S. government's official web portal to all federal, state and local government web resources and services.